Terminal Aerodrome Forecast
Issued by NWS Lake Charles, LA

Home | Current Version | Previous Version | Text Only | Print | Product List | Glossary On
Versions: 1 2 3 4 5 6 7 8 9 10 11 12 13 14 15 16 17 18 19 20
184
FTUS44 KLCH 272320
TAFBPT
TAF
KBPT 272320Z 2800/2824 19012G18KT P6SM SCT040
     FM280200 17010KT P6SM SCT060
     FM280600 15005KT 4SM BR OVC007
      TEMPO 2813/2815 BKN015 BKN021
     FM281500 14010KT P6SM BKN015
     FM281800 15012KT P6SM BKN050=

USA.gov is the U.S. government's official web portal to all federal, state and local government web resources and services.